Latest Weather Observations for Moranbah Airport

IDQ60801

Issued at 2:02 pm EST Saturday 13 February 2016 (issued every 30 minutes, with the page automatically refreshed every 10 minutes)

About weather observations | Map of weather stations | Latest weather observations for QLD | Other Formats
Station Details ID: 034035 Name: MORANBAH AIRPORT Lat: -22.06 Lon: 148.08 Height: 232.2 m
Data from the previous 72 hours. | See also: Recent months at Moranbah Airport
Date/Time
EST
Temp
°C
App
Temp
°C
Dew
Point
Rel
Hum
%
Delta-T
°C
Wind Press
QNH
hPa
Press
MSL
hPa
Rain
since 9 am
mm
Dir
 
Spd
km/h
Gust
km/h
Spd
kts
Gust
kts
13/02:00pm 32.3 28.5 15.7 36 10.5 SE 30 39 16 21 1008.1 1006.5 0.0
13/01:30pm 32.5 28.4 15.9 36 10.5 SE 32 44 17 24 1008.3 1006.7 0.0
13/01:00pm 30.4 28.7 15.7 41 9.2 SE 19 32 10 17 1008.9 1007.3 0.0
13/12:30pm 30.9 30.2 18.3 47 8.2 SE 19 28 10 15 1009.3 1007.7 0.0
13/12:00pm 29.8 29.9 18.3 50 7.5 SE 15 24 8 13 1009.8 1008.2 0.0
13/11:30am 29.8 29.1 18.6 51 7.3 SE 20 30 11 16 1010.3 1008.7 0.0
13/11:00am 28.8 27.9 17.7 51 7.1 SSE 19 28 10 15 1010.6 1009.1 0.0
13/10:30am 28.5 27.3 17.4 51 7.1 SE 20 30 11 16 1011.0 1009.5 0.0
13/10:00am 28.0 26.9 17.8 54 6.5 SE 20 32 11 17 1011.1 1009.6 0.0
13/09:30am 28.1 27.1 17.9 54 6.5 SE 20 30 11 16 1011.1 1009.6 0.0
13/09:00am 27.0 26.3 18.3 59 5.6 SE 19 24 10 13 1011.1 1009.6 0.0
13/08:30am 26.2 27.0 19.1 65 4.6 SE 13 19 7 10 1011.0 1009.5 0.0
13/08:00am 25.2 26.0 19.1 69 3.9 SE 13 19 7 10 1010.9 1009.4 0.0
13/07:30am 24.3 26.1 19.6 75 3.0 SSE 9 13 5 7 1010.8 1009.3 0.0
13/07:00am 22.3 24.9 20.0 87 1.5 SSW 6 9 3 5 1010.7 1009.2 0.0
13/06:30am 20.1 22.1 18.8 92 0.8 SSE 6 7 3 4 1010.2 1008.6 0.0
13/06:00am 19.3 21.2 17.6 90 1.1 SW 4 6 2 3 1010.1 1008.5 0.0
13/05:30am 20.2 21.1 18.3 89 1.2 S 11 11 6 6 1009.7 1008.1 0.0
13/05:00am 20.5 21.9 18.6 89 1.2 S 9 11 5 6 1009.5 1007.9 0.0
13/04:30am 20.3 22.0 18.6 90 1.1 S 7 11 4 6 1009.3 1007.7 0.0
13/04:00am 20.5 21.8 18.4 88 1.3 S 9 11 5 6 1009.3 1007.7 0.0
13/03:30am 20.8 22.1 18.4 86 1.5 SSE 9 9 5 5 1009.4 1007.8 0.0
13/03:00am 21.2 22.2 18.6 85 1.6 SSE 11 13 6 7 1009.5 1007.9 0.0
13/02:30am 20.9 21.8 18.5 86 1.5 S 11 13 6 7 1009.7 1008.1 0.0
13/02:00am 20.9 21.7 18.1 84 1.8 S 11 13 6 7 1009.9 1008.3 0.0
13/01:30am 21.1 23.5 17.9 82 2.0 SW 2 7 1 4 1010.1 1008.5 0.0
13/01:00am 21.1 23.6 17.3 79 2.4 CALM 0 0 0 0 1010.2 1008.6 0.0
13/12:30am 21.9 22.9 17.7 77 2.6 E 9 11 5 6 1010.4 1008.8 0.0
13/12:00am 21.9 21.9 17.1 74 3.0 E 13 13 7 7 1010.6 1009.1 0.0
 
Date/Time
EST
Temp
°C
App
Temp
°C
Dew
Point
Rel
Hum
%
Delta-T
°C
Wind Press
QNH
hPa
Press
MSL
hPa
Rain
since 9 am
mm
Dir
 
Spd
km/h
Gust
km/h
Spd
kts
Gust
kts
12/11:30pm 22.5 22.9 16.3 68 3.8 E 9 11 5 6 1010.6 1009.1 0.0
12/11:00pm 22.9 23.0 16.4 67 4.0 ESE 11 13 6 7 1010.7 1009.2 0.0
12/10:30pm 23.5 23.5 16.3 64 4.4 SSE 11 13 6 7 1010.7 1009.2 0.0
12/10:00pm 23.7 23.9 16.7 65 4.3 SSE 11 13 6 7 1010.7 1009.2 0.0
12/09:30pm 24.6 24.6 16.3 60 5.1 SSE 11 11 6 6 1010.6 1009.1 0.0
12/09:00pm 24.8 25.2 16.2 58 5.3 SSE 9 9 5 5 1010.5 1008.9 0.0
12/08:30pm 24.8 24.9 16.5 60 5.1 SE 11 11 6 6 1010.2 1008.6 0.0
12/08:00pm 25.8 25.6 15.8 54 6.2 SE 11 15 6 8 1009.9 1008.3 0.0
12/07:30pm 27.7 26.2 15.4 47 7.6 ESE 17 20 9 11 1009.4 1007.8 0.0
12/07:00pm 28.8 26.6 15.0 43 8.5 ESE 20 26 11 14 1009.1 1007.5 0.0
12/06:30pm 29.3 27.7 15.1 42 8.8 ESE 17 22 9 12 1008.8 1007.2 0.0
12/06:00pm 30.6 27.2 13.8 35 10.2 ESE 24 32 13 17 1008.7 1007.1 0.0
12/05:30pm 30.6 26.5 13.8 35 10.2 ESE 28 35 15 19 1008.5 1006.9 0.0
12/05:00pm 31.7 28.6 14.4 35 10.7 SE 24 35 13 19 1008.2 1006.6 0.0
12/04:30pm 32.2 27.2 13.4 32 11.4 SE 32 41 17 22 1008.0 1006.4 0.0
12/04:00pm 32.0 27.1 13.7 33 11.2 SE 32 43 17 23 1008.1 1006.5 0.0
12/03:30pm 32.7 29.5 15.2 34 10.9 SE 26 39 14 21 1008.3 1006.7 0.0
12/03:00pm 32.8 30.4 15.3 34 11.0 SE 22 35 12 19 1008.3 1006.7 0.0
12/02:30pm 31.9 29.0 15.0 36 10.5 SE 24 35 13 19 1008.8 1007.2 0.0
12/02:00pm 31.7 28.8 16.0 38 9.9 SE 26 35 14 19 1009.2 1007.6 0.0
12/01:30pm 32.1 31.0 17.2 41 9.6 SSE 19 32 10 17 1009.6 1008.0 0.0
12/01:00pm 31.0 29.3 16.2 41 9.3 SE 20 32 11 17 1010.1 1008.5 0.0
12/12:30pm 30.4 30.2 17.5 46 8.3 SSE 15 28 8 15 1010.4 1008.8 0.0
12/12:00pm 30.1 28.5 17.5 46 8.1 SSE 22 33 12 18 1010.9 1009.4 0.0
12/11:30am 29.6 28.2 17.1 47 7.9 SE 20 32 11 17 1011.3 1009.8 0.0
12/11:00am 29.7 29.1 18.8 52 7.1 SE 20 30 11 16 1011.5 1010.0 0.0
12/10:30am 28.7 27.7 17.9 52 6.9 SE 20 28 11 15 1011.8 1010.3 0.0
12/10:00am 28.7 29.1 19.9 59 5.8 SE 17 26 9 14 1011.9 1010.4 0.0
12/09:30am 28.0 28.9 20.0 61 5.3 SE 15 20 8 11 1012.1 1010.6 0.0
12/09:00am 27.0 27.6 19.4 63 5.0 SE 15 19 8 10 1012.3 1010.7 0.0
12/08:30am 26.2 26.2 19.8 68 4.2 SE 19 24 10 13 1012.5 1010.9 0.0
12/08:00am 25.1 24.9 19.7 72 3.5 SE 20 24 11 13 1012.5 1010.9 0.0
12/07:30am 24.1 25.4 20.2 79 2.6 SE 13 17 7 9 1012.5 1010.9 0.0
12/07:00am 22.9 25.7 20.8 88 1.4 S 7 9 4 5 1012.3 1010.7 0.0
12/06:30am 20.6 22.7 19.4 93 0.8 S 7 9 4 5 1012.0 1010.5 0.0
12/06:00am 19.9 23.0 18.6 92 0.8 CALM 0 0 0 0 1011.4 1009.9 0.0
12/05:30am 20.1 22.8 18.6 91 0.9 ESE 2 6 1 3 1011.1 1009.6 0.0
12/05:00am 20.4 21.7 18.5 89 1.2 ESE 9 11 5 6 1010.9 1009.4 0.0
12/04:30am 20.9 21.8 19.2 90 1.1 SSE 13 15 7 8 1010.7 1009.2 0.0
12/04:00am 20.7 22.1 18.6 88 1.3 SSE 9 11 5 6 1010.6 1009.1 0.0
12/03:30am 21.3 22.5 19.0 87 1.5 SSE 11 11 6 6 1010.6 1009.1 0.0
12/03:00am 21.2 22.7 18.9 87 1.5 SSE 9 11 5 6 1010.6 1009.1 0.0
12/02:30am 21.2 22.3 18.9 87 1.5 SSE 11 11 6 6 1010.6 1009.1 0.0
12/02:00am 21.5 22.5 18.7 84 1.8 S 11 13 6 7 1010.6 1009.1 0.0
12/01:30am 21.7 23.0 18.5 82 2.0 SE 9 9 5 5 1010.8 1009.3 0.0
12/01:00am 22.1 23.8 18.5 80 2.3 SE 7 9 4 5 1011.1 1009.6 0.0
12/12:30am 22.4 24.1 18.0 76 2.8 E 6 7 3 4 1011.0 1009.5 0.0
12/12:00am 22.6 23.9 18.4 77 2.7 E 9 9 5 5 1011.2 1009.7 0.0
 
Date/Time
EST
Temp
°C
App
Temp
°C
Dew
Point
Rel
Hum
%
Delta-T
°C
Wind Press
QNH
hPa
Press
MSL
hPa
Rain
since 9 am
mm
Dir
 
Spd
km/h
Gust
km/h
Spd
kts
Gust
kts
11/11:30pm 22.8 23.5 17.9 74 3.1 E 11 13 6 7 1011.3 1009.8 0.0
11/11:00pm 23.2 23.4 17.7 71 3.5 E 13 15 7 8 1011.2 1009.7 0.0
11/10:30pm 22.6 22.6 17.1 71 3.4 E 13 17 7 9 1011.1 1009.6 0.0
11/10:00pm 22.8 24.4 17.9 74 3.1 SSE 6 9 3 5 1010.7 1009.2 0.0
11/09:30pm 23.4 24.2 17.4 69 3.8 SSE 9 9 5 5 1010.5 1008.9 0.0
11/09:00pm 24.6 25.2 16.8 62 4.9 SSE 9 11 5 6 1010.4 1008.8 0.0
11/08:30pm 24.2 24.6 17.2 65 4.4 SE 11 13 6 7 1010.3 1008.7 0.0
11/08:00pm 25.4 25.0 16.3 57 5.6 SE 13 15 7 8 1010.2 1008.6 0.0
11/07:30pm 26.4 25.5 15.8 52 6.5 SE 15 17 8 9 1010.0 1008.4 0.0
11/07:00pm 27.9 26.3 14.9 45 8.0 SE 17 22 9 12 1009.6 1008.0 0.0
11/06:30pm 28.9 26.5 14.3 40 8.9 SE 20 28 11 15 1009.3 1007.7 0.0
11/06:00pm 30.2 27.6 13.9 37 9.9 SE 20 28 11 15 1008.8 1007.2 0.0
11/05:30pm 30.6 27.8 14.3 37 10.0 ESE 22 28 12 15 1008.6 1007.0 0.0
11/05:00pm 30.8 27.7 14.4 36 10.1 ESE 24 33 13 18 1008.5 1006.9 0.0
11/04:30pm 31.2 27.4 14.8 37 10.1 SE 28 37 15 20 1008.4 1006.8 0.0
11/04:00pm 31.5 28.5 15.9 39 9.8 ESE 26 37 14 20 1008.3 1006.7 0.0
11/03:30pm 30.5 28.4 16.1 41 9.1 ESE 22 35 12 19 1008.3 1006.7 0.0
11/03:00pm 31.2 29.1 17.1 42 9.0 SE 24 33 13 18 1008.5 1006.9 0.0
11/02:30pm 31.0 30.2 18.4 47 8.2 SE 20 30 11 16 1008.9 1007.3 0.0
11/02:00pm 31.1 29.8 18.1 46 8.4 SE 22 33 12 18 1009.2 1007.6 0.0
11/01:30pm 30.1 29.2 18.2 49 7.7 SE 20 30 11 16 1009.7 1008.1 0.0
11/01:00pm 29.5 28.1 17.0 47 7.9 SE 20 33 11 18 1010.1 1008.5 0.0
11/12:30pm 30.3 29.2 18.7 50 7.6 ESE 22 39 12 21 1010.5 1008.9 0.0
11/12:00pm 29.8 28.8 18.9 52 7.1 ESE 22 33 12 18 1011.0 1009.5 0.0
11/11:30am 28.7 28.0 18.2 53 6.8 ESE 19 30 10 16 1011.3 1009.8 0.0
11/11:00am 28.3 27.4 19.0 57 6.1 SE 22 30 12 16 1011.6 1010.1 0.0
11/10:30am 28.7 27.8 19.9 59 5.8 ESE 24 33 13 18 1011.7 1010.2 0.0
11/10:00am 27.6 26.9 19.4 61 5.4 ESE 22 30 12 16 1012.1 1010.6 0.0
11/09:30am 26.3 25.9 20.2 69 4.0 ESE 22 30 12 16 1012.1 1010.6 0.0
11/09:00am 26.7 27.1 21.0 71 3.8 SE 20 28 11 15 1012.1 1010.6 0.0
11/08:30am 25.6 25.9 20.8 75 3.2 ESE 20 26 11 14 1012.1 1010.6 0.0
11/08:00am 25.0 25.3 20.5 76 3.0 SE 19 26 10 14 1011.9 1010.4 0.0
11/07:30am 24.2 24.5 20.5 80 2.4 SE 19 22 10 12 1011.5 1010.0 0.0
11/07:00am 23.3 24.1 20.6 85 1.8 SE 17 20 9 11 1011.2 1009.7 0.0
11/06:30am 22.4 23.5 20.5 89 1.2 SE 15 19 8 10 1011.0 1009.5 0.0
11/06:00am 21.6 22.8 19.9 90 1.1 ESE 13 15 7 8 1010.7 1009.2 0.0
11/05:30am 21.6 22.8 19.9 90 1.1 ESE 13 15 7 8 1010.4 1008.8 0.0
11/05:00am 21.3 23.2 19.8 91 1.0 ESE 9 11 5 6 1010.1 1008.5 0.0
11/04:30am 21.5 23.5 20.0 91 1.0 SE 9 13 5 7 1009.9 1008.3 0.0
11/04:00am 21.5 23.0 19.8 90 1.1 SE 11 13 6 7 1009.8 1008.2 0.0
11/03:30am 22.0 23.3 20.1 89 1.2 ESE 13 17 7 9 1009.7 1008.1 0.0
11/03:00am 21.9 23.8 20.5 92 0.9 SE 11 13 6 7 1009.9 1008.3 0.0
11/02:30am 21.8 23.2 20.3 91 1.0 SE 13 15 7 8 1009.8 1008.2 0.0
11/02:00am 21.8 23.5 20.1 90 1.1 SE 11 13 6 7 1009.8 1008.2 0.0
11/01:30am 22.0 24.0 19.9 88 1.4 SSE 9 9 5 5 1010.1 1008.5 0.0
11/01:00am 22.2 24.2 19.9 87 1.5 SE 9 11 5 6 1010.2 1008.6 0.0
11/12:30am 22.9 25.2 19.9 83 1.9 E 7 7 4 4 1010.5 1008.9 0.0
11/12:00am 23.0 25.3 19.8 82 2.1 ENE 7 7 4 4 1010.8 1009.3 0.0
 
Date/Time
EST
Temp
°C
App
Temp
°C
Dew
Point
Rel
Hum
%
Delta-T
°C
Wind Press
QNH
hPa
Press
MSL
hPa
Rain
since 9 am
mm
Dir
 
Spd
km/h
Gust
km/h
Spd
kts
Gust
kts
10/11:30pm 23.3 25.3 19.9 81 2.2 E 9 11 5 6 1011.0 1009.5 0.0
10/11:00pm 23.5 25.4 19.8 80 2.4 E 9 11 5 6 1011.3 1009.8 0.0
10/10:30pm 23.7 25.2 19.0 75 3.0 E 9 11 5 6 1011.3 1009.8 0.0
10/10:00pm 24.2 25.1 18.4 70 3.7 ESE 11 13 6 7 1011.3 1009.8 0.0
10/09:30pm 24.5 24.8 18.0 67 4.1 SE 13 15 7 8 1010.9 1009.4 0.0
10/09:00pm 24.4 25.0 18.6 70 3.7 SSE 13 13 7 7 1010.8 1009.3 0.0
10/08:30pm 24.1 25.0 18.5 71 3.6 SE 11 13 6 7 1010.8 1009.3 0.0
10/08:00pm 24.6 25.5 18.3 68 4.0 SSE 11 13 6 7 1010.5 1008.9 0.0
10/07:30pm 25.2 25.3 17.4 62 4.9 SE 13 13 7 7 1010.2 1008.6 0.0
10/07:00pm 26.4 26.3 16.9 56 6.0 SE 13 15 7 8 1009.9 1008.3 0.0
10/06:30pm 28.2 26.6 16.1 47 7.5 SE 19 22 10 12 1009.5 1007.9 0.0
10/06:00pm 28.7 27.4 15.9 45 8.0 SE 17 20 9 11 1009.2 1007.6 0.0
10/05:30pm 29.5 27.5 15.6 43 8.6 SE 20 28 11 15 1008.9 1007.3 0.0
10/05:00pm 30.0 28.1 15.7 42 8.9 SE 20 32 11 17 1008.8 1007.2 0.0
10/04:30pm 30.1 28.2 15.8 42 8.9 SSE 20 28 11 15 1008.8 1007.2 0.0
10/04:00pm 29.9 28.7 16.0 43 8.7 SE 17 28 9 15 1008.9 1007.3 0.0
10/03:30pm 29.9 28.5 17.0 45 8.2 SE 20 28 11 15 1009.1 1007.5 0.0
10/03:00pm 30.6 30.8 17.7 46 8.3 SE 13 22 7 12 1009.3 1007.7 0.0
10/02:30pm 29.8 28.5 16.9 45 8.2 ESE 19 28 10 15 1009.6 1008.0 0.0

Other Formats:

Comma delimited format used in spreadsheet applications
http://www.bom.gov.au/fwo/IDQ60801/IDQ60801.94397.axf

JavaScript Object Notation format (JSON) in row-major order
http://www.bom.gov.au/fwo/IDQ60801/IDQ60801.94397.json